Terminal Aerodrome Forecast
Issued by NWS

Home | Current Version | Previous Version | Text Only | Print | Product List | Glossary On
Versions: 1 2 3 4 5 6 7 8 9 10 11 12 13 14 15 16
309
FTUS41 KPBZ 251739
TAFDUJ
TAF
KDUJ 251739Z 2518/2618 15005KT P6SM VCSH OVC020
     FM260300 23004KT P6SM -SHRA BKN015
     FM260500 25005KT 4SM -SHRA BR OVC004
     FM261400 27007KT P6SM VCSH OVC006=

USA.gov is the U.S. government's official web portal to all federal, state and local government web resources and services.